sensor_id;sensor_type;location;lat;lon;timestamp;P1;durP1;ratioP1;P2;durP2;ratioP2
43086;SDS011;28708;52.224;6.924;2022-10-24T00:01:06;9.20;;;3.30;;
43086;SDS011;28708;52.224;6.924;2022-10-24T00:03:36;7.67;;;3.10;;
43086;SDS011;28708;52.224;6.924;2022-10-24T00:06:04;8.67;;;2.80;;
43086;SDS011;28708;52.224;6.924;2022-10-24T00:08:31;13.00;;;3.23;;
43086;SDS011;28708;52.224;6.924;2022-10-24T00:10:58;9.17;;;2.60;;
43086;SDS011;28708;52.224;6.924;2022-10-24T00:13:24;11.60;;;3.37;;
43086;SDS011;28708;52.224;6.924;2022-10-24T00:15:50;10.77;;;2.97;;
43086;SDS011;28708;52.224;6.924;2022-10-24T00:18:16;12.20;;;3.10;;
43086;SDS011;28708;52.224;6.924;2022-10-24T00:20:42;13.17;;;3.53;;
43086;SDS011;28708;52.224;6.924;2022-10-24T00:23:08;10.17;;;3.23;;
43086;SDS011;28708;52.224;6.924;2022-10-24T00:25:36;12.80;;;2.67;;
43086;SDS011;28708;52.224;6.924;2022-10-24T00:28:02;12.10;;;3.03;;
43086;SDS011;28708;52.224;6.924;2022-10-24T00:30:28;9.40;;;2.70;;
43086;SDS011;28708;52.224;6.924;2022-10-24T00:32:53;9.60;;;2.37;;
43086;SDS011;28708;52.224;6.924;2022-10-24T00:35:19;9.97;;;2.67;;
43086;SDS011;28708;52.224;6.924;2022-10-24T00:37:45;9.17;;;2.90;;
43086;SDS011;28708;52.224;6.924;2022-10-24T00:40:13;14.60;;;3.20;;
43086;SDS011;28708;52.224;6.924;2022-10-24T00:42:40;11.15;;;2.63;;
43086;SDS011;28708;52.224;6.924;2022-10-24T00:48:08;8.97;;;2.60;;
43086;SDS011;28708;52.224;6.924;2022-10-24T00:50:40;9.87;;;3.20;;
43086;SDS011;28708;52.224;6.924;2022-10-24T00:53:06;12.43;;;2.97;;
43086;SDS011;28708;52.224;6.924;2022-10-24T00:55:33;13.87;;;3.33;;
43086;SDS011;28708;52.224;6.924;2022-10-24T00:57:59;10.47;;;3.07;;
43086;SDS011;28708;52.224;6.924;2022-10-24T01:00:28;10.37;;;2.70;;
43086;SDS011;28708;52.224;6.924;2022-10-24T01:02:56;12.00;;;3.03;;
43086;SDS011;28708;52.224;6.924;2022-10-24T01:05:23;15.63;;;3.40;;
43086;SDS011;28708;52.224;6.924;2022-10-24T01:21:26;9.67;;;2.67;;
43086;SDS011;28708;52.224;6.924;2022-10-24T01:34:56;6.93;;;2.30;;
43086;SDS011;28708;52.224;6.924;2022-10-24T01:37:47;18.23;;;3.10;;
43086;SDS011;28708;52.224;6.924;2022-10-24T01:40:27;10.23;;;2.63;;
43086;SDS011;28708;52.224;6.924;2022-10-24T01:45:25;9.57;;;2.57;;
43086;SDS011;28708;52.224;6.924;2022-10-24T01:47:55;11.47;;;3.07;;
43086;SDS011;28708;52.224;6.924;2022-10-24T01:50:23;12.20;;;2.37;;
43086;SDS011;28708;52.224;6.924;2022-10-24T01:52:51;8.03;;;2.63;;
43086;SDS011;28708;52.224;6.924;2022-10-24T01:55:19;10.03;;;3.10;;
43086;SDS011;28708;52.224;6.924;2022-10-24T01:57:45;14.73;;;2.50;;
43086;SDS011;28708;52.224;6.924;2022-10-24T02:00:15;9.17;;;2.70;;
43086;SDS011;28708;52.224;6.924;2022-10-24T02:02:45;11.03;;;3.77;;
43086;SDS011;28708;52.224;6.924;2022-10-24T02:08:16;12.60;;;3.60;;
43086;SDS011;28708;52.224;6.924;2022-10-24T02:10:47;7.07;;;2.87;;
43086;SDS011;28708;52.224;6.924;2022-10-24T02:16:09;10.73;;;2.90;;
43086;SDS011;28708;52.224;6.924;2022-10-24T02:18:36;8.37;;;2.90;;
43086;SDS011;28708;52.224;6.924;2022-10-24T02:21:06;15.30;;;3.03;;
43086;SDS011;28708;52.224;6.924;2022-10-24T02:23:34;11.50;;;3.00;;
43086;SDS011;28708;52.224;6.924;2022-10-24T02:26:11;14.10;;;3.30;;
43086;SDS011;28708;52.224;6.924;2022-10-24T02:28:44;11.00;;;2.90;;
43086;SDS011;28708;52.224;6.924;2022-10-24T02:31:16;13.07;;;3.27;;
43086;SDS011;28708;52.224;6.924;2022-10-24T02:33:48;11.30;;;2.70;;
43086;SDS011;28708;52.224;6.924;2022-10-24T02:36:16;12.27;;;3.30;;
43086;SDS011;28708;52.224;6.924;2022-10-24T02:38:48;9.57;;;2.80;;
43086;SDS011;28708;52.224;6.924;2022-10-24T02:41:20;14.80;;;3.50;;
43086;SDS011;28708;52.224;6.924;2022-10-24T02:43:50;14.47;;;3.17;;
43086;SDS011;28708;52.224;6.924;2022-10-24T02:46:18;11.50;;;2.67;;
43086;SDS011;28708;52.224;6.924;2022-10-24T02:48:46;8.07;;;2.57;;
43086;SDS011;28708;52.224;6.924;2022-10-24T02:51:23;11.47;;;2.60;;
43086;SDS011;28708;52.224;6.924;2022-10-24T02:53:55;7.97;;;2.30;;
43086;SDS011;28708;52.224;6.924;2022-10-24T02:56:22;10.23;;;2.50;;
43086;SDS011;28708;52.224;6.924;2022-10-24T02:58:47;10.10;;;2.50;;
43086;SDS011;28708;52.224;6.924;2022-10-24T03:01:13;7.13;;;2.47;;
43086;SDS011;28708;52.224;6.924;2022-10-24T03:03:39;11.70;;;2.40;;
43086;SDS011;28708;52.224;6.924;2022-10-24T03:06:05;7.33;;;2.43;;
43086;SDS011;28708;52.224;6.924;2022-10-24T03:08:31;10.47;;;2.83;;
43086;SDS011;28708;52.224;6.924;2022-10-24T03:10:57;11.27;;;2.63;;
43086;SDS011;28708;52.224;6.924;2022-10-24T03:13:23;9.57;;;2.23;;
43086;SDS011;28708;52.224;6.924;2022-10-24T03:15:49;9.87;;;2.00;;
43086;SDS011;28708;52.224;6.924;2022-10-24T03:18:15;8.30;;;2.27;;
43086;SDS011;28708;52.224;6.924;2022-10-24T03:20:41;11.23;;;2.40;;
43086;SDS011;28708;52.224;6.924;2022-10-24T03:23:06;7.93;;;1.97;;
43086;SDS011;28708;52.224;6.924;2022-10-24T03:25:32;6.70;;;1.90;;
43086;SDS011;28708;52.224;6.924;2022-10-24T03:27:58;9.20;;;2.27;;
43086;SDS011;28708;52.224;6.924;2022-10-24T03:30:24;6.87;;;2.00;;
43086;SDS011;28708;52.224;6.924;2022-10-24T03:32:50;7.53;;;1.90;;
43086;SDS011;28708;52.224;6.924;2022-10-24T03:35:16;10.30;;;1.90;;
43086;SDS011;28708;52.224;6.924;2022-10-24T03:37:42;12.13;;;2.60;;
43086;SDS011;28708;52.224;6.924;2022-10-24T03:40:08;10.17;;;2.20;;
43086;SDS011;28708;52.224;6.924;2022-10-24T03:42:35;7.00;;;2.03;;
43086;SDS011;28708;52.224;6.924;2022-10-24T03:45:01;9.57;;;2.00;;
43086;SDS011;28708;52.224;6.924;2022-10-24T03:47:27;10.87;;;2.50;;
43086;SDS011;28708;52.224;6.924;2022-10-24T03:49:52;9.20;;;2.47;;
43086;SDS011;28708;52.224;6.924;2022-10-24T03:52:18;8.30;;;2.10;;
43086;SDS011;28708;52.224;6.924;2022-10-24T03:54:44;7.97;;;2.00;;
43086;SDS011;28708;52.224;6.924;2022-10-24T03:57:10;10.33;;;2.27;;
43086;SDS011;28708;52.224;6.924;2022-10-24T03:59:36;9.70;;;2.40;;
43086;SDS011;28708;52.224;6.924;2022-10-24T04:02:02;8.77;;;2.13;;
43086;SDS011;28708;52.224;6.924;2022-10-24T04:04:28;7.23;;;2.10;;
43086;SDS011;28708;52.224;6.924;2022-10-24T04:06:54;5.70;;;1.70;;
43086;SDS011;28708;52.224;6.924;2022-10-24T04:09:20;8.03;;;2.00;;
43086;SDS011;28708;52.224;6.924;2022-10-24T04:11:47;6.93;;;2.30;;
43086;SDS011;28708;52.224;6.924;2022-10-24T04:14:13;8.43;;;2.20;;
43086;SDS011;28708;52.224;6.924;2022-10-24T04:16:39;13.57;;;2.50;;
43086;SDS011;28708;52.224;6.924;2022-10-24T04:19:05;9.70;;;2.13;;
43086;SDS011;28708;52.224;6.924;2022-10-24T04:21:31;8.67;;;2.30;;
43086;SDS011;28708;52.224;6.924;2022-10-24T04:23:56;8.90;;;2.70;;
43086;SDS011;28708;52.224;6.924;2022-10-24T04:26:22;9.37;;;2.30;;
43086;SDS011;28708;52.224;6.924;2022-10-24T04:28:49;9.73;;;2.70;;
43086;SDS011;28708;52.224;6.924;2022-10-24T04:31:15;8.43;;;3.03;;
43086;SDS011;28708;52.224;6.924;2022-10-24T04:33:41;9.17;;;2.40;;
43086;SDS011;28708;52.224;6.924;2022-10-24T04:36:07;11.37;;;2.60;;
43086;SDS011;28708;52.224;6.924;2022-10-24T04:38:32;7.63;;;2.30;;
43086;SDS011;28708;52.224;6.924;2022-10-24T04:40:58;6.50;;;2.00;;
43086;SDS011;28708;52.224;6.924;2022-10-24T04:43:25;11.60;;;2.70;;
43086;SDS011;28708;52.224;6.924;2022-10-24T04:45:50;5.37;;;1.90;;
43086;SDS011;28708;52.224;6.924;2022-10-24T04:48:16;8.10;;;2.07;;
43086;SDS011;28708;52.224;6.924;2022-10-24T04:50:43;9.43;;;2.07;;
43086;SDS011;28708;52.224;6.924;2022-10-24T04:53:11;9.17;;;2.33;;
43086;SDS011;28708;52.224;6.924;2022-10-24T04:55:37;10.57;;;1.73;;
43086;SDS011;28708;52.224;6.924;2022-10-24T04:58:03;5.97;;;1.70;;
43086;SDS011;28708;52.224;6.924;2022-10-24T05:00:29;10.37;;;1.93;;
43086;SDS011;28708;52.224;6.924;2022-10-24T05:02:55;7.90;;;2.03;;
43086;SDS011;28708;52.224;6.924;2022-10-24T05:05:21;6.67;;;2.00;;
43086;SDS011;28708;52.224;6.924;2022-10-24T05:07:47;6.83;;;1.70;;
43086;SDS011;28708;52.224;6.924;2022-10-24T05:10:13;6.43;;;1.60;;
43086;SDS011;28708;52.224;6.924;2022-10-24T05:12:40;7.17;;;1.93;;
43086;SDS011;28708;52.224;6.924;2022-10-24T05:15:06;6.07;;;1.50;;
43086;SDS011;28708;52.224;6.924;2022-10-24T05:17:33;10.13;;;2.00;;
43086;SDS011;28708;52.224;6.924;2022-10-24T05:19:59;5.30;;;2.03;;
43086;SDS011;28708;52.224;6.924;2022-10-24T05:22:24;7.77;;;2.03;;
43086;SDS011;28708;52.224;6.924;2022-10-24T05:24:50;7.23;;;1.90;;
43086;SDS011;28708;52.224;6.924;2022-10-24T05:27:16;9.23;;;1.90;;
43086;SDS011;28708;52.224;6.924;2022-10-24T05:29:52;8.50;;;1.83;;
43086;SDS011;28708;52.224;6.924;2022-10-24T05:32:19;8.40;;;2.08;;
43086;SDS011;28708;52.224;6.924;2022-10-24T05:34:46;6.63;;;1.87;;
43086;SDS011;28708;52.224;6.924;2022-10-24T05:37:12;5.70;;;1.63;;
43086;SDS011;28708;52.224;6.924;2022-10-24T05:39:38;7.67;;;1.70;;
43086;SDS011;28708;52.224;6.924;2022-10-24T05:42:04;8.73;;;2.03;;
43086;SDS011;28708;52.224;6.924;2022-10-24T05:44:30;5.93;;;1.70;;
43086;SDS011;28708;52.224;6.924;2022-10-24T05:46:56;9.40;;;2.10;;
43086;SDS011;28708;52.224;6.924;2022-10-24T05:49:22;8.90;;;1.93;;
43086;SDS011;28708;52.224;6.924;2022-10-24T05:51:48;5.10;;;1.83;;
43086;SDS011;28708;52.224;6.924;2022-10-24T05:54:14;5.33;;;1.63;;
43086;SDS011;28708;52.224;6.924;2022-10-24T05:56:40;6.70;;;1.50;;
43086;SDS011;28708;52.224;6.924;2022-10-24T05:59:06;6.63;;;1.80;;
43086;SDS011;28708;52.224;6.924;2022-10-24T06:01:32;8.80;;;1.50;;
43086;SDS011;28708;52.224;6.924;2022-10-24T06:03:58;7.70;;;1.57;;
43086;SDS011;28708;52.224;6.924;2022-10-24T06:06:24;6.17;;;1.60;;
43086;SDS011;28708;52.224;6.924;2022-10-24T06:08:50;9.17;;;1.70;;
43086;SDS011;28708;52.224;6.924;2022-10-24T06:11:16;13.20;;;1.60;;
43086;SDS011;28708;52.224;6.924;2022-10-24T06:13:42;9.03;;;1.60;;
43086;SDS011;28708;52.224;6.924;2022-10-24T06:16:09;5.90;;;1.70;;
43086;SDS011;28708;52.224;6.924;2022-10-24T06:18:35;6.60;;;1.70;;
43086;SDS011;28708;52.224;6.924;2022-10-24T06:21:02;8.57;;;1.80;;
43086;SDS011;28708;52.224;6.924;2022-10-24T06:23:29;10.77;;;1.90;;
43086;SDS011;28708;52.224;6.924;2022-10-24T06:25:55;9.43;;;2.00;;
43086;SDS011;28708;52.224;6.924;2022-10-24T06:28:21;6.17;;;1.50;;
43086;SDS011;28708;52.224;6.924;2022-10-24T06:30:48;8.43;;;1.63;;
43086;SDS011;28708;52.224;6.924;2022-10-24T06:33:15;9.63;;;1.60;;
43086;SDS011;28708;52.224;6.924;2022-10-24T06:35:41;7.83;;;1.93;;
43086;SDS011;28708;52.224;6.924;2022-10-24T06:38:07;8.27;;;2.23;;
43086;SDS011;28708;52.224;6.924;2022-10-24T06:40:33;6.17;;;1.67;;
43086;SDS011;28708;52.224;6.924;2022-10-24T06:43:03;7.63;;;1.87;;
43086;SDS011;28708;52.224;6.924;2022-10-24T06:45:29;7.93;;;1.60;;
43086;SDS011;28708;52.224;6.924;2022-10-24T06:47:55;7.60;;;1.40;;
43086;SDS011;28708;52.224;6.924;2022-10-24T06:50:21;7.93;;;1.60;;
43086;SDS011;28708;52.224;6.924;2022-10-24T06:52:46;5.63;;;1.63;;
43086;SDS011;28708;52.224;6.924;2022-10-24T06:55:12;11.47;;;2.00;;
43086;SDS011;28708;52.224;6.924;2022-10-24T06:57:38;6.77;;;1.70;;
43086;SDS011;28708;52.224;6.924;2022-10-24T07:00:04;4.73;;;1.57;;
43086;SDS011;28708;52.224;6.924;2022-10-24T07:02:31;8.30;;;1.80;;
43086;SDS011;28708;52.224;6.924;2022-10-24T07:04:57;8.73;;;1.43;;
43086;SDS011;28708;52.224;6.924;2022-10-24T07:07:23;7.93;;;1.67;;
43086;SDS011;28708;52.224;6.924;2022-10-24T07:09:52;10.43;;;2.03;;
43086;SDS011;28708;52.224;6.924;2022-10-24T07:12:20;10.97;;;1.67;;
43086;SDS011;28708;52.224;6.924;2022-10-24T07:14:49;10.02;;;1.58;;
43086;SDS011;28708;52.224;6.924;2022-10-24T07:17:15;7.60;;;1.70;;
43086;SDS011;28708;52.224;6.924;2022-10-24T07:19:42;7.73;;;1.50;;
43086;SDS011;28708;52.224;6.924;2022-10-24T07:22:08;9.73;;;1.80;;
43086;SDS011;28708;52.224;6.924;2022-10-24T07:24:34;5.70;;;1.40;;
43086;SDS011;28708;52.224;6.924;2022-10-24T07:27:00;9.10;;;1.90;;
43086;SDS011;28708;52.224;6.924;2022-10-24T07:29:27;12.13;;;2.13;;
43086;SDS011;28708;52.224;6.924;2022-10-24T07:31:53;8.77;;;1.90;;
43086;SDS011;28708;52.224;6.924;2022-10-24T07:34:19;8.37;;;2.13;;
43086;SDS011;28708;52.224;6.924;2022-10-24T07:36:44;9.50;;;1.57;;
43086;SDS011;28708;52.224;6.924;2022-10-24T07:39:11;9.50;;;1.93;;
43086;SDS011;28708;52.224;6.924;2022-10-24T07:41:38;10.27;;;1.63;;
43086;SDS011;28708;52.224;6.924;2022-10-24T07:44:07;8.93;;;2.05;;
43086;SDS011;28708;52.224;6.924;2022-10-24T07:46:35;9.57;;;1.70;;
43086;SDS011;28708;52.224;6.924;2022-10-24T07:49:02;6.50;;;1.50;;
43086;SDS011;28708;52.224;6.924;2022-10-24T07:51:27;7.10;;;1.73;;
43086;SDS011;28708;52.224;6.924;2022-10-24T07:53:56;10.73;;;1.90;;
43086;SDS011;28708;52.224;6.924;2022-10-24T07:56:22;8.50;;;2.00;;
43086;SDS011;28708;52.224;6.924;2022-10-24T07:58:48;7.40;;;1.60;;
43086;SDS011;28708;52.224;6.924;2022-10-24T08:01:16;6.17;;;1.77;;
43086;SDS011;28708;52.224;6.924;2022-10-24T08:03:44;10.20;;;1.83;;
43086;SDS011;28708;52.224;6.924;2022-10-24T08:06:12;7.57;;;1.70;;
43086;SDS011;28708;52.224;6.924;2022-10-24T08:08:39;5.60;;;1.70;;
43086;SDS011;28708;52.224;6.924;2022-10-24T08:11:10;12.00;;;1.90;;
43086;SDS011;28708;52.224;6.924;2022-10-24T08:13:37;8.60;;;1.90;;
43086;SDS011;28708;52.224;6.924;2022-10-24T08:16:05;10.80;;;2.20;;
43086;SDS011;28708;52.224;6.924;2022-10-24T08:18:35;10.37;;;1.90;;
43086;SDS011;28708;52.224;6.924;2022-10-24T08:21:02;9.40;;;1.73;;
43086;SDS011;28708;52.224;6.924;2022-10-24T08:23:30;14.93;;;2.23;;
43086;SDS011;28708;52.224;6.924;2022-10-24T08:25:57;10.07;;;2.27;;
43086;SDS011;28708;52.224;6.924;2022-10-24T08:28:23;7.60;;;1.63;;
43086;SDS011;28708;52.224;6.924;2022-10-24T08:30:56;9.70;;;1.87;;
43086;SDS011;28708;52.224;6.924;2022-10-24T08:33:24;7.93;;;1.80;;
43086;SDS011;28708;52.224;6.924;2022-10-24T08:35:51;10.57;;;1.70;;
43086;SDS011;28708;52.224;6.924;2022-10-24T08:38:19;7.82;;;1.73;;
43086;SDS011;28708;52.224;6.924;2022-10-24T08:40:46;8.97;;;1.60;;
43086;SDS011;28708;52.224;6.924;2022-10-24T08:43:13;7.10;;;1.67;;
43086;SDS011;28708;52.224;6.924;2022-10-24T08:45:43;15.73;;;1.90;;
43086;SDS011;28708;52.224;6.924;2022-10-24T08:48:22;7.93;;;1.80;;
43086;SDS011;28708;52.224;6.924;2022-10-24T08:51:22;9.33;;;1.90;;
43086;SDS011;28708;52.224;6.924;2022-10-24T08:54:30;9.17;;;2.00;;
43086;SDS011;28708;52.224;6.924;2022-10-24T08:57:03;10.93;;;2.00;;
43086;SDS011;28708;52.224;6.924;2022-10-24T08:59:31;12.83;;;1.63;;
43086;SDS011;28708;52.224;6.924;2022-10-24T09:02:05;9.13;;;1.95;;
43086;SDS011;28708;52.224;6.924;2022-10-24T09:05:02;8.23;;;1.80;;
43086;SDS011;28708;52.224;6.924;2022-10-24T09:07:44;8.87;;;1.50;;
43086;SDS011;28708;52.224;6.924;2022-10-24T09:10:19;15.50;;;2.17;;
43086;SDS011;28708;52.224;6.924;2022-10-24T09:13:12;10.20;;;1.57;;
43086;SDS011;28708;52.224;6.924;2022-10-24T09:15:39;9.87;;;1.97;;
43086;SDS011;28708;52.224;6.924;2022-10-24T09:18:16;10.73;;;2.40;;
43086;SDS011;28708;52.224;6.924;2022-10-24T09:21:07;11.43;;;1.70;;
43086;SDS011;28708;52.224;6.924;2022-10-24T09:23:36;9.63;;;1.80;;
43086;SDS011;28708;52.224;6.924;2022-10-24T09:26:03;11.90;;;2.07;;
43086;SDS011;28708;52.224;6.924;2022-10-24T09:31:16;13.23;;;1.80;;
43086;SDS011;28708;52.224;6.924;2022-10-24T09:33:45;13.43;;;2.30;;
43086;SDS011;28708;52.224;6.924;2022-10-24T09:36:13;11.93;;;2.00;;
43086;SDS011;28708;52.224;6.924;2022-10-24T09:38:41;8.93;;;1.43;;
43086;SDS011;28708;52.224;6.924;2022-10-24T09:44:10;7.90;;;1.83;;
43086;SDS011;28708;52.224;6.924;2022-10-24T09:46:55;9.63;;;1.77;;
43086;SDS011;28708;52.224;6.924;2022-10-24T09:49:22;11.93;;;2.33;;
43086;SDS011;28708;52.224;6.924;2022-10-24T09:52:01;10.43;;;1.87;;
43086;SDS011;28708;52.224;6.924;2022-10-24T09:54:32;8.30;;;1.83;;
43086;SDS011;28708;52.224;6.924;2022-10-24T09:57:04;14.53;;;2.30;;
43086;SDS011;28708;52.224;6.924;2022-10-24T09:59:42;9.77;;;1.63;;
43086;SDS011;28708;52.224;6.924;2022-10-24T10:04:35;11.03;;;1.80;;
43086;SDS011;28708;52.224;6.924;2022-10-24T10:07:07;11.10;;;1.93;;
43086;SDS011;28708;52.224;6.924;2022-10-24T10:09:35;10.43;;;1.87;;
43086;SDS011;28708;52.224;6.924;2022-10-24T10:12:23;12.47;;;2.20;;
43086;SDS011;28708;52.224;6.924;2022-10-24T10:18:06;10.87;;;1.90;;
43086;SDS011;28708;52.224;6.924;2022-10-24T10:23:38;8.73;;;1.80;;
43086;SDS011;28708;52.224;6.924;2022-10-24T10:28:38;8.70;;;1.57;;
43086;SDS011;28708;52.224;6.924;2022-10-24T10:39:37;10.37;;;1.57;;
43086;SDS011;28708;52.224;6.924;2022-10-24T10:42:11;6.23;;;1.50;;
43086;SDS011;28708;52.224;6.924;2022-10-24T10:47:37;7.40;;;1.40;;
43086;SDS011;28708;52.224;6.924;2022-10-24T10:53:20;7.27;;;1.40;;
43086;SDS011;28708;52.224;6.924;2022-10-24T10:56:38;9.45;;;1.55;;
43086;SDS011;28708;52.224;6.924;2022-10-24T10:59:03;6.53;;;1.23;;
43086;SDS011;28708;52.224;6.924;2022-10-24T11:07:19;9.83;;;1.60;;
43086;SDS011;28708;52.224;6.924;2022-10-24T11:09:48;6.60;;;1.33;;
43086;SDS011;28708;52.224;6.924;2022-10-24T11:12:19;10.70;;;2.97;;
43086;SDS011;28708;52.224;6.924;2022-10-24T11:15:02;11.53;;;1.53;;
43086;SDS011;28708;52.224;6.924;2022-10-24T11:17:36;7.37;;;1.43;;
43086;SDS011;28708;52.224;6.924;2022-10-24T11:23:13;9.87;;;1.67;;
43086;SDS011;28708;52.224;6.924;2022-10-24T11:25:56;7.93;;;1.67;;
43086;SDS011;28708;52.224;6.924;2022-10-24T11:28:41;9.43;;;1.67;;
43086;SDS011;28708;52.224;6.924;2022-10-24T11:32:13;12.57;;;2.05;;
43086;SDS011;28708;52.224;6.924;2022-10-24T11:36:56;10.83;;;1.73;;
43086;SDS011;28708;52.224;6.924;2022-10-24T11:39:32;10.70;;;1.77;;
43086;SDS011;28708;52.224;6.924;2022-10-24T11:42:20;8.70;;;1.80;;
43086;SDS011;28708;52.224;6.924;2022-10-24T11:47:59;9.83;;;1.80;;
43086;SDS011;28708;52.224;6.924;2022-10-24T11:53:52;14.23;;;1.90;;
43086;SDS011;28708;52.224;6.924;2022-10-24T11:56:33;6.70;;;1.93;;
43086;SDS011;28708;52.224;6.924;2022-10-24T11:59:17;10.43;;;2.00;;
43086;SDS011;28708;52.224;6.924;2022-10-24T12:10:26;8.83;;;1.60;;
43086;SDS011;28708;52.224;6.924;2022-10-24T12:18:12;11.43;;;1.80;;
43086;SDS011;28708;52.224;6.924;2022-10-24T12:21:07;7.93;;;2.03;;
43086;SDS011;28708;52.224;6.924;2022-10-24T12:23:38;7.53;;;1.83;;
43086;SDS011;28708;52.224;6.924;2022-10-24T12:26:07;9.23;;;1.90;;
43086;SDS011;28708;52.224;6.924;2022-10-24T12:28:51;9.13;;;1.70;;
43086;SDS011;28708;52.224;6.924;2022-10-24T12:31:31;8.23;;;1.93;;
43086;SDS011;28708;52.224;6.924;2022-10-24T12:39:55;7.27;;;1.80;;
43086;SDS011;28708;52.224;6.924;2022-10-24T12:44:48;8.47;;;2.07;;
43086;SDS011;28708;52.224;6.924;2022-10-24T12:47:28;8.80;;;1.87;;
43086;SDS011;28708;52.224;6.924;2022-10-24T12:58:20;10.50;;;2.13;;
43086;SDS011;28708;52.224;6.924;2022-10-24T13:00:57;8.83;;;1.80;;
43086;SDS011;28708;52.224;6.924;2022-10-24T13:06:06;7.87;;;1.67;;
43086;SDS011;28708;52.224;6.924;2022-10-24T13:08:56;9.30;;;2.37;;
43086;SDS011;28708;52.224;6.924;2022-10-24T13:11:39;10.67;;;1.90;;
43086;SDS011;28708;52.224;6.924;2022-10-24T13:16:50;7.67;;;1.50;;
43086;SDS011;28708;52.224;6.924;2022-10-24T13:19:27;10.37;;;2.10;;
43086;SDS011;28708;52.224;6.924;2022-10-24T13:21:55;6.30;;;1.70;;
43086;SDS011;28708;52.224;6.924;2022-10-24T13:24:27;11.80;;;1.98;;
43086;SDS011;28708;52.224;6.924;2022-10-24T13:40:13;10.77;;;2.00;;
43086;SDS011;28708;52.224;6.924;2022-10-24T13:42:47;9.80;;;1.77;;
43086;SDS011;28708;52.224;6.924;2022-10-24T13:48:20;7.73;;;1.87;;
43086;SDS011;28708;52.224;6.924;2022-10-24T13:51:07;8.27;;;1.70;;
43086;SDS011;28708;52.224;6.924;2022-10-24T13:53:45;9.30;;;1.90;;
43086;SDS011;28708;52.224;6.924;2022-10-24T13:56:20;9.25;;;2.72;;
43086;SDS011;28708;52.224;6.924;2022-10-24T13:58:46;6.60;;;2.07;;
43086;SDS011;28708;52.224;6.924;2022-10-24T14:03:40;11.00;;;2.23;;
43086;SDS011;28708;52.224;6.924;2022-10-24T14:06:07;9.70;;;2.20;;
43086;SDS011;28708;52.224;6.924;2022-10-24T14:08:35;12.37;;;1.93;;
43086;SDS011;28708;52.224;6.924;2022-10-24T14:11:13;9.77;;;2.50;;
43086;SDS011;28708;52.224;6.924;2022-10-24T14:16:27;13.87;;;2.53;;
43086;SDS011;28708;52.224;6.924;2022-10-24T14:19:11;10.97;;;2.20;;
43086;SDS011;28708;52.224;6.924;2022-10-24T14:21:50;10.40;;;2.30;;
43086;SDS011;28708;52.224;6.924;2022-10-24T14:24:20;8.63;;;2.00;;
43086;SDS011;28708;52.224;6.924;2022-10-24T14:26:47;10.40;;;3.43;;
43086;SDS011;28708;52.224;6.924;2022-10-24T14:29:28;8.38;;;2.30;;
43086;SDS011;28708;52.224;6.924;2022-10-24T14:32:00;10.60;;;2.27;;
43086;SDS011;28708;52.224;6.924;2022-10-24T14:34:29;9.80;;;2.43;;
43086;SDS011;28708;52.224;6.924;2022-10-24T14:37:12;11.60;;;2.73;;
43086;SDS011;28708;52.224;6.924;2022-10-24T14:39:40;16.33;;;2.23;;
43086;SDS011;28708;52.224;6.924;2022-10-24T14:42:12;15.07;;;2.73;;
43086;SDS011;28708;52.224;6.924;2022-10-24T14:44:40;10.10;;;2.50;;
43086;SDS011;28708;52.224;6.924;2022-10-24T14:49:46;11.17;;;2.73;;
43086;SDS011;28708;52.224;6.924;2022-10-24T14:54:40;14.77;;;2.57;;
43086;SDS011;28708;52.224;6.924;2022-10-24T14:57:17;10.40;;;2.53;;
43086;SDS011;28708;52.224;6.924;2022-10-24T14:59:46;8.83;;;2.23;;
43086;SDS011;28708;52.224;6.924;2022-10-24T15:05:14;11.37;;;2.37;;
43086;SDS011;28708;52.224;6.924;2022-10-24T15:07:40;14.20;;;2.73;;
43086;SDS011;28708;52.224;6.924;2022-10-24T15:12:41;14.03;;;2.77;;
43086;SDS011;28708;52.224;6.924;2022-10-24T15:15:18;11.20;;;2.70;;
43086;SDS011;28708;52.224;6.924;2022-10-24T15:17:46;16.20;;;2.50;;
43086;SDS011;28708;52.224;6.924;2022-10-24T15:20:14;14.10;;;2.40;;
43086;SDS011;28708;52.224;6.924;2022-10-24T15:22:49;12.93;;;2.78;;
43086;SDS011;28708;52.224;6.924;2022-10-24T15:25:33;9.83;;;2.67;;
43086;SDS011;28708;52.224;6.924;2022-10-24T15:28:02;11.77;;;2.90;;
43086;SDS011;28708;52.224;6.924;2022-10-24T15:30:33;15.10;;;5.07;;
43086;SDS011;28708;52.224;6.924;2022-10-24T15:33:01;16.17;;;3.47;;
43086;SDS011;28708;52.224;6.924;2022-10-24T15:35:32;11.53;;;2.97;;
43086;SDS011;28708;52.224;6.924;2022-10-24T15:38:03;12.10;;;2.50;;
43086;SDS011;28708;52.224;6.924;2022-10-24T15:40:36;9.93;;;2.53;;
43086;SDS011;28708;52.224;6.924;2022-10-24T15:43:11;12.30;;;2.87;;
43086;SDS011;28708;52.224;6.924;2022-10-24T15:45:38;14.90;;;2.63;;
43086;SDS011;28708;52.224;6.924;2022-10-24T15:48:03;11.27;;;2.53;;
43086;SDS011;28708;52.224;6.924;2022-10-24T15:50:29;11.50;;;2.53;;
43086;SDS011;28708;52.224;6.924;2022-10-24T15:52:56;11.50;;;2.73;;
43086;SDS011;28708;52.224;6.924;2022-10-24T15:55:25;15.68;;;3.88;;
43086;SDS011;28708;52.224;6.924;2022-10-24T15:57:52;14.77;;;3.23;;
43086;SDS011;28708;52.224;6.924;2022-10-24T16:00:19;12.00;;;2.67;;
43086;SDS011;28708;52.224;6.924;2022-10-24T16:02:50;15.57;;;2.87;;
43086;SDS011;28708;52.224;6.924;2022-10-24T16:05:21;21.77;;;3.17;;
43086;SDS011;28708;52.224;6.924;2022-10-24T16:07:50;17.40;;;3.20;;
43086;SDS011;28708;52.224;6.924;2022-10-24T16:10:16;12.90;;;3.03;;
43086;SDS011;28708;52.224;6.924;2022-10-24T16:12:45;15.30;;;3.23;;
43086;SDS011;28708;52.224;6.924;2022-10-24T16:15:20;13.37;;;2.83;;
43086;SDS011;28708;52.224;6.924;2022-10-24T16:17:48;12.30;;;3.03;;
43086;SDS011;28708;52.224;6.924;2022-10-24T16:20:14;17.23;;;3.47;;
43086;SDS011;28708;52.224;6.924;2022-10-24T16:22:41;11.40;;;3.10;;
43086;SDS011;28708;52.224;6.924;2022-10-24T16:25:17;14.57;;;3.93;;
43086;SDS011;28708;52.224;6.924;2022-10-24T16:27:45;11.60;;;3.97;;
43086;SDS011;28708;52.224;6.924;2022-10-24T16:30:19;11.70;;;3.60;;
43086;SDS011;28708;52.224;6.924;2022-10-24T16:32:47;13.13;;;3.80;;
43086;SDS011;28708;52.224;6.924;2022-10-24T16:35:18;11.73;;;3.53;;
43086;SDS011;28708;52.224;6.924;2022-10-24T16:37:51;16.37;;;4.23;;
43086;SDS011;28708;52.224;6.924;2022-10-24T16:40:18;17.03;;;4.33;;
43086;SDS011;28708;52.224;6.924;2022-10-24T16:42:47;11.90;;;3.80;;
43086;SDS011;28708;52.224;6.924;2022-10-24T16:45:17;15.17;;;5.27;;
43086;SDS011;28708;52.224;6.924;2022-10-24T16:47:44;15.57;;;5.33;;
43086;SDS011;28708;52.224;6.924;2022-10-24T16:50:22;23.50;;;8.17;;
43086;SDS011;28708;52.224;6.924;2022-10-24T16:52:51;17.57;;;5.50;;
43086;SDS011;28708;52.224;6.924;2022-10-24T16:55:18;12.20;;;3.83;;
43086;SDS011;28708;52.224;6.924;2022-10-24T16:57:45;12.87;;;3.73;;
43086;SDS011;28708;52.224;6.924;2022-10-24T17:00:14;12.40;;;3.47;;
43086;SDS011;28708;52.224;6.924;2022-10-24T17:02:42;13.15;;;3.72;;
43086;SDS011;28708;52.224;6.924;2022-10-24T17:05:10;13.97;;;3.00;;
43086;SDS011;28708;52.224;6.924;2022-10-24T17:07:37;13.03;;;2.90;;
43086;SDS011;28708;52.224;6.924;2022-10-24T17:10:07;16.23;;;3.70;;
43086;SDS011;28708;52.224;6.924;2022-10-24T17:12:36;10.77;;;3.00;;
43086;SDS011;28708;52.224;6.924;2022-10-24T17:15:06;16.20;;;3.50;;
43086;SDS011;28708;52.224;6.924;2022-10-24T17:17:32;13.10;;;3.57;;
43086;SDS011;28708;52.224;6.924;2022-10-24T17:19:59;9.53;;;3.43;;
43086;SDS011;28708;52.224;6.924;2022-10-24T17:22:25;10.07;;;3.60;;
43086;SDS011;28708;52.224;6.924;2022-10-24T17:24:52;12.90;;;4.47;;
43086;SDS011;28708;52.224;6.924;2022-10-24T17:27:19;18.83;;;4.83;;
43086;SDS011;28708;52.224;6.924;2022-10-24T17:29:46;15.00;;;4.27;;